sensor_id;sensor_type;location;lat;lon;timestamp;temperature;humidity
29345;DHT22;16339;48.748;2.222;2023-08-17T00:11:32;26.20;82.80
29345;DHT22;16339;48.748;2.222;2023-08-17T00:14:15;26.20;83.10
29345;DHT22;16339;48.748;2.222;2023-08-17T00:17:00;26.20;83.20
29345;DHT22;16339;48.748;2.222;2023-08-17T00:19:55;26.20;83.40
29345;DHT22;16339;48.748;2.222;2023-08-17T00:25:51;26.20;83.60
29345;DHT22;16339;48.748;2.222;2023-08-17T00:28:48;26.10;83.60
29345;DHT22;16339;48.748;2.222;2023-08-17T00:31:34;26.10;83.70
29345;DHT22;16339;48.748;2.222;2023-08-17T00:34:11;26.10;84.00
29345;DHT22;16339;48.748;2.222;2023-08-17T00:37:10;26.10;84.20
29345;DHT22;16339;48.748;2.222;2023-08-17T00:40:11;26.00;84.30
29345;DHT22;16339;48.748;2.222;2023-08-17T00:43:32;26.00;84.40
29345;DHT22;16339;48.748;2.222;2023-08-17T00:46:41;26.00;84.40
29345;DHT22;16339;48.748;2.222;2023-08-17T00:50:59;26.00;84.50
29345;DHT22;16339;48.748;2.222;2023-08-17T01:20:10;26.00;85.50
29345;DHT22;16339;48.748;2.222;2023-08-17T02:09:20;25.40;88.00
29345;DHT22;16339;48.748;2.222;2023-08-17T02:15:41;25.30;88.20
29345;DHT22;16339;48.748;2.222;2023-08-17T02:18:33;25.20;88.20
29345;DHT22;16339;48.748;2.222;2023-08-17T03:28:15;25.50;88.90
29345;DHT22;16339;48.748;2.222;2023-08-17T03:47:57;25.40;88.30
29345;DHT22;16339;48.748;2.222;2023-08-17T03:51:05;25.30;88.20
29345;DHT22;16339;48.748;2.222;2023-08-17T04:42:20;24.70;89.70
29345;DHT22;16339;48.748;2.222;2023-08-17T04:45:30;24.60;90.00
29345;DHT22;16339;48.748;2.222;2023-08-17T04:48:26;24.60;90.10
29345;DHT22;16339;48.748;2.222;2023-08-17T05:18:14;24.40;90.40
29345;DHT22;16339;48.748;2.222;2023-08-17T05:21:00;24.40;90.40
29345;DHT22;16339;48.748;2.222;2023-08-17T05:47:37;24.50;90.50
29345;DHT22;16339;48.748;2.222;2023-08-17T05:50:26;24.60;90.40
29345;DHT22;16339;48.748;2.222;2023-08-17T05:56:15;24.60;90.60
29345;DHT22;16339;48.748;2.222;2023-08-17T05:59:11;24.50;90.50
29345;DHT22;16339;48.748;2.222;2023-08-17T06:01:52;24.60;90.50
29345;DHT22;16339;48.748;2.222;2023-08-17T06:04:41;24.60;90.50
29345;DHT22;16339;48.748;2.222;2023-08-17T06:52:56;24.60;90.50
29345;DHT22;16339;48.748;2.222;2023-08-17T06:55:00;24.70;90.30
29345;DHT22;16339;48.748;2.222;2023-08-17T06:57:50;24.80;90.30
29345;DHT22;16339;48.748;2.222;2023-08-17T07:01:02;24.90;90.30
29345;DHT22;16339;48.748;2.222;2023-08-17T07:03:21;25.00;90.20
29345;DHT22;16339;48.748;2.222;2023-08-17T07:05:50;25.10;90.20
29345;DHT22;16339;48.748;2.222;2023-08-17T07:08:22;25.20;90.20
29345;DHT22;16339;48.748;2.222;2023-08-17T07:10:50;25.20;90.10
29345;DHT22;16339;48.748;2.222;2023-08-17T07:13:19;25.30;90.00
29345;DHT22;16339;48.748;2.222;2023-08-17T07:15:48;25.40;90.00
29345;DHT22;16339;48.748;2.222;2023-08-17T07:18:16;25.40;89.90
29345;DHT22;16339;48.748;2.222;2023-08-17T07:20:45;25.40;89.70
29345;DHT22;16339;48.748;2.222;2023-08-17T07:23:15;25.50;89.70
29345;DHT22;16339;48.748;2.222;2023-08-17T07:25:46;25.50;89.40
29345;DHT22;16339;48.748;2.222;2023-08-17T07:28:14;25.50;89.40
29345;DHT22;16339;48.748;2.222;2023-08-17T07:30:43;25.60;89.40
29345;DHT22;16339;48.748;2.222;2023-08-17T07:33:12;25.60;89.00
29345;DHT22;16339;48.748;2.222;2023-08-17T07:35:40;25.60;89.10
29345;DHT22;16339;48.748;2.222;2023-08-17T07:38:09;25.70;89.10
29345;DHT22;16339;48.748;2.222;2023-08-17T07:40:38;25.70;89.20
29345;DHT22;16339;48.748;2.222;2023-08-17T07:43:11;25.70;88.90
29345;DHT22;16339;48.748;2.222;2023-08-17T07:45:41;25.60;88.60
29345;DHT22;16339;48.748;2.222;2023-08-17T07:51:08;25.70;88.80
29345;DHT22;16339;48.748;2.222;2023-08-17T07:53:36;25.80;88.70
29345;DHT22;16339;48.748;2.222;2023-08-17T07:56:04;25.90;88.70
29345;DHT22;16339;48.748;2.222;2023-08-17T07:58:36;25.90;88.00
29345;DHT22;16339;48.748;2.222;2023-08-17T08:01:13;25.90;88.20
29345;DHT22;16339;48.748;2.222;2023-08-17T08:03:41;26.00;88.00
29345;DHT22;16339;48.748;2.222;2023-08-17T08:06:09;26.00;87.60
29345;DHT22;16339;48.748;2.222;2023-08-17T08:08:38;26.10;87.30
29345;DHT22;16339;48.748;2.222;2023-08-17T08:11:06;26.10;87.10
29345;DHT22;16339;48.748;2.222;2023-08-17T08:13:38;26.10;86.90
29345;DHT22;16339;48.748;2.222;2023-08-17T08:16:06;26.10;86.90
29345;DHT22;16339;48.748;2.222;2023-08-17T08:18:34;26.10;86.90
29345;DHT22;16339;48.748;2.222;2023-08-17T08:21:03;26.20;86.80
29345;DHT22;16339;48.748;2.222;2023-08-17T08:23:31;26.20;86.90
29345;DHT22;16339;48.748;2.222;2023-08-17T08:26:06;26.20;86.90
29345;DHT22;16339;48.748;2.222;2023-08-17T08:28:34;26.30;86.90
29345;DHT22;16339;48.748;2.222;2023-08-17T08:31:08;26.30;86.40
29345;DHT22;16339;48.748;2.222;2023-08-17T08:57:51;26.60;86.00
29345;DHT22;16339;48.748;2.222;2023-08-17T09:00:21;26.60;85.50
29345;DHT22;16339;48.748;2.222;2023-08-17T09:05:54;26.70;86.30
29345;DHT22;16339;48.748;2.222;2023-08-17T09:19:04;26.80;84.20
29345;DHT22;16339;48.748;2.222;2023-08-17T09:21:38;26.80;83.90
29345;DHT22;16339;48.748;2.222;2023-08-17T09:24:07;26.80;84.10
29345;DHT22;16339;48.748;2.222;2023-08-17T09:26:39;26.80;84.40
29345;DHT22;16339;48.748;2.222;2023-08-17T09:29:20;26.80;84.10
29345;DHT22;16339;48.748;2.222;2023-08-17T09:34:46;26.80;83.80
29345;DHT22;16339;48.748;2.222;2023-08-17T09:53:53;26.80;82.20
29345;DHT22;16339;48.748;2.222;2023-08-17T09:56:22;26.80;81.60
29345;DHT22;16339;48.748;2.222;2023-08-17T09:58:51;26.80;81.20
29345;DHT22;16339;48.748;2.222;2023-08-17T10:01:20;26.90;81.60
29345;DHT22;16339;48.748;2.222;2023-08-17T10:03:49;26.90;81.80
29345;DHT22;16339;48.748;2.222;2023-08-17T10:12:28;26.90;81.90
29345;DHT22;16339;48.748;2.222;2023-08-17T10:15:15;27.00;81.30
29345;DHT22;16339;48.748;2.222;2023-08-17T10:17:44;27.00;81.50
29345;DHT22;16339;48.748;2.222;2023-08-17T10:23:14;27.00;79.60
29345;DHT22;16339;48.748;2.222;2023-08-17T10:25:43;27.10;79.30
29345;DHT22;16339;48.748;2.222;2023-08-17T10:28:14;27.10;79.60
29345;DHT22;16339;48.748;2.222;2023-08-17T10:33:55;27.20;78.80
29345;DHT22;16339;48.748;2.222;2023-08-17T10:56:51;27.40;73.00
29345;DHT22;16339;48.748;2.222;2023-08-17T10:59:24;27.50;73.50
29345;DHT22;16339;48.748;2.222;2023-08-17T11:02:22;27.60;74.20
29345;DHT22;16339;48.748;2.222;2023-08-17T11:05:03;27.60;73.10
29345;DHT22;16339;48.748;2.222;2023-08-17T11:16:37;27.80;69.00
29345;DHT22;16339;48.748;2.222;2023-08-17T11:25:31;28.10;70.50
29345;DHT22;16339;48.748;2.222;2023-08-17T11:28:39;28.20;71.90
29345;DHT22;16339;48.748;2.222;2023-08-17T11:31:21;28.10;71.50
29345;DHT22;16339;48.748;2.222;2023-08-17T11:33:54;28.20;70.80
29345;DHT22;16339;48.748;2.222;2023-08-17T11:36:22;28.30;70.70
29345;DHT22;16339;48.748;2.222;2023-08-17T11:38:51;28.40;70.80
29345;DHT22;16339;48.748;2.222;2023-08-17T11:41:20;28.40;70.30
29345;DHT22;16339;48.748;2.222;2023-08-17T11:43:49;28.50;69.80
29345;DHT22;16339;48.748;2.222;2023-08-17T11:46:17;28.50;69.00
29345;DHT22;16339;48.748;2.222;2023-08-17T11:48:51;28.60;69.60
29345;DHT22;16339;48.748;2.222;2023-08-17T11:51:32;28.60;69.60
29345;DHT22;16339;48.748;2.222;2023-08-17T11:54:02;28.70;69.90
29345;DHT22;16339;48.748;2.222;2023-08-17T11:56:34;28.70;69.30
29345;DHT22;16339;48.748;2.222;2023-08-17T11:59:12;28.70;67.70
29345;DHT22;16339;48.748;2.222;2023-08-17T12:01:43;28.80;68.80
29345;DHT22;16339;48.748;2.222;2023-08-17T12:04:12;28.80;68.20
29345;DHT22;16339;48.748;2.222;2023-08-17T12:06:44;28.90;67.30
29345;DHT22;16339;48.748;2.222;2023-08-17T12:09:13;28.90;66.40
29345;DHT22;16339;48.748;2.222;2023-08-17T12:11:42;28.90;66.30
29345;DHT22;16339;48.748;2.222;2023-08-17T12:14:12;28.90;67.70
29345;DHT22;16339;48.748;2.222;2023-08-17T12:16:47;29.00;68.30
29345;DHT22;16339;48.748;2.222;2023-08-17T12:19:16;29.00;66.80
29345;DHT22;16339;48.748;2.222;2023-08-17T12:21:47;29.10;67.00
29345;DHT22;16339;48.748;2.222;2023-08-17T12:24:16;29.10;67.70
29345;DHT22;16339;48.748;2.222;2023-08-17T12:26:45;29.20;67.50
29345;DHT22;16339;48.748;2.222;2023-08-17T12:29:14;29.30;67.20
29345;DHT22;16339;48.748;2.222;2023-08-17T12:31:42;29.40;66.30
29345;DHT22;16339;48.748;2.222;2023-08-17T12:34:11;29.40;67.00
29345;DHT22;16339;48.748;2.222;2023-08-17T12:36:40;29.50;67.40
29345;DHT22;16339;48.748;2.222;2023-08-17T12:39:13;29.50;66.90
29345;DHT22;16339;48.748;2.222;2023-08-17T12:41:42;29.60;65.80
29345;DHT22;16339;48.748;2.222;2023-08-17T12:44:11;29.60;66.30
29345;DHT22;16339;48.748;2.222;2023-08-17T12:46:40;29.70;66.50
29345;DHT22;16339;48.748;2.222;2023-08-17T12:49:09;29.80;64.40
29345;DHT22;16339;48.748;2.222;2023-08-17T12:51:37;29.70;62.10
29345;DHT22;16339;48.748;2.222;2023-08-17T12:54:06;29.70;62.70
29345;DHT22;16339;48.748;2.222;2023-08-17T12:56:37;29.70;64.00
29345;DHT22;16339;48.748;2.222;2023-08-17T13:02:02;29.90;64.70
29345;DHT22;16339;48.748;2.222;2023-08-17T13:04:43;29.90;64.40
29345;DHT22;16339;48.748;2.222;2023-08-17T13:07:12;30.00;64.20
29345;DHT22;16339;48.748;2.222;2023-08-17T13:09:41;30.00;64.90
29345;DHT22;16339;48.748;2.222;2023-08-17T13:12:14;30.10;65.20
29345;DHT22;16339;48.748;2.222;2023-08-17T13:14:45;30.20;65.20
29345;DHT22;16339;48.748;2.222;2023-08-17T13:17:16;30.20;65.30
29345;DHT22;16339;48.748;2.222;2023-08-17T13:19:45;30.30;65.20
29345;DHT22;16339;48.748;2.222;2023-08-17T13:22:14;30.30;65.00
29345;DHT22;16339;48.748;2.222;2023-08-17T13:24:43;30.40;65.70
29345;DHT22;16339;48.748;2.222;2023-08-17T13:27:26;30.40;66.70
29345;DHT22;16339;48.748;2.222;2023-08-17T13:29:55;30.50;66.10
29345;DHT22;16339;48.748;2.222;2023-08-17T13:32:24;30.50;65.90
29345;DHT22;16339;48.748;2.222;2023-08-17T13:34:52;30.60;65.10
29345;DHT22;16339;48.748;2.222;2023-08-17T13:37:21;30.60;65.40
29345;DHT22;16339;48.748;2.222;2023-08-17T13:39:52;30.60;65.10
29345;DHT22;16339;48.748;2.222;2023-08-17T13:45:20;30.70;63.50
29345;DHT22;16339;48.748;2.222;2023-08-17T13:47:49;30.80;65.20
29345;DHT22;16339;48.748;2.222;2023-08-17T13:50:18;30.80;65.60
29345;DHT22;16339;48.748;2.222;2023-08-17T13:55:46;30.80;65.70
29345;DHT22;16339;48.748;2.222;2023-08-17T13:58:15;30.80;66.10
29345;DHT22;16339;48.748;2.222;2023-08-17T14:00:54;30.90;65.00
29345;DHT22;16339;48.748;2.222;2023-08-17T14:03:25;30.90;64.70
29345;DHT22;16339;48.748;2.222;2023-08-17T14:16:44;31.20;65.50
29345;DHT22;16339;48.748;2.222;2023-08-17T14:25:03;31.40;63.90
29345;DHT22;16339;48.748;2.222;2023-08-17T14:27:31;31.40;63.70
29345;DHT22;16339;48.748;2.222;2023-08-17T14:30:00;31.50;64.10
29345;DHT22;16339;48.748;2.222;2023-08-17T14:35:28;31.60;64.00
29345;DHT22;16339;48.748;2.222;2023-08-17T14:37:56;31.60;64.60
29345;DHT22;16339;48.748;2.222;2023-08-17T14:40:27;31.60;64.70
29345;DHT22;16339;48.748;2.222;2023-08-17T14:42:55;31.70;64.40
29345;DHT22;16339;48.748;2.222;2023-08-17T14:45:24;31.70;64.60
29345;DHT22;16339;48.748;2.222;2023-08-17T14:47:53;31.70;64.50
29345;DHT22;16339;48.748;2.222;2023-08-17T14:50:42;31.80;64.30
29345;DHT22;16339;48.748;2.222;2023-08-17T14:53:10;31.70;63.90
29345;DHT22;16339;48.748;2.222;2023-08-17T14:55:38;31.70;64.20
29345;DHT22;16339;48.748;2.222;2023-08-17T15:12:45;31.90;63.50
29345;DHT22;16339;48.748;2.222;2023-08-17T15:35:37;32.20;63.50
29345;DHT22;16339;48.748;2.222;2023-08-17T15:38:05;32.20;62.90
29345;DHT22;16339;48.748;2.222;2023-08-17T15:43:29;32.30;62.00
29345;DHT22;16339;48.748;2.222;2023-08-17T15:45:58;32.30;61.50
29345;DHT22;16339;48.748;2.222;2023-08-17T15:48:27;32.30;61.60
29345;DHT22;16339;48.748;2.222;2023-08-17T15:50:58;32.40;61.50
29345;DHT22;16339;48.748;2.222;2023-08-17T15:53:27;32.40;61.30
29345;DHT22;16339;48.748;2.222;2023-08-17T15:55:55;32.50;61.40
29345;DHT22;16339;48.748;2.222;2023-08-17T15:58:24;32.50;60.90
29345;DHT22;16339;48.748;2.222;2023-08-17T16:00:52;32.60;60.60
29345;DHT22;16339;48.748;2.222;2023-08-17T16:03:21;32.60;60.30
29345;DHT22;16339;48.748;2.222;2023-08-17T16:05:51;32.70;60.70
29345;DHT22;16339;48.748;2.222;2023-08-17T16:08:22;32.80;60.70
29345;DHT22;16339;48.748;2.222;2023-08-17T16:10:51;33.10;60.50
29345;DHT22;16339;48.748;2.222;2023-08-17T16:13:19;33.60;58.90
29345;DHT22;16339;48.748;2.222;2023-08-17T16:15:48;34.10;58.10
29345;DHT22;16339;48.748;2.222;2023-08-17T16:18:16;35.00;56.80
29345;DHT22;16339;48.748;2.222;2023-08-17T16:20:44;35.80;55.70
29345;DHT22;16339;48.748;2.222;2023-08-17T16:23:13;36.60;54.40
29345;DHT22;16339;48.748;2.222;2023-08-17T16:25:44;37.50;53.40
29345;DHT22;16339;48.748;2.222;2023-08-17T16:28:13;38.30;52.00
29345;DHT22;16339;48.748;2.222;2023-08-17T16:30:41;38.90;50.50
29345;DHT22;16339;48.748;2.222;2023-08-17T16:33:10;39.40;50.00
29345;DHT22;16339;48.748;2.222;2023-08-17T16:35:41;39.90;49.20
29345;DHT22;16339;48.748;2.222;2023-08-17T16:38:09;40.40;48.90
29345;DHT22;16339;48.748;2.222;2023-08-17T16:40:38;40.70;48.40
29345;DHT22;16339;48.748;2.222;2023-08-17T16:43:09;41.00;47.70
29345;DHT22;16339;48.748;2.222;2023-08-17T16:45:37;41.50;47.60
29345;DHT22;16339;48.748;2.222;2023-08-17T16:48:06;41.90;46.60
29345;DHT22;16339;48.748;2.222;2023-08-17T16:50:34;42.20;46.30
29345;DHT22;16339;48.748;2.222;2023-08-17T16:53:03;42.40;45.50
29345;DHT22;16339;48.748;2.222;2023-08-17T16:55:31;42.60;45.40
29345;DHT22;16339;48.748;2.222;2023-08-17T16:58:00;42.70;45.60
29345;DHT22;16339;48.748;2.222;2023-08-17T17:00:31;42.90;45.60
29345;DHT22;16339;48.748;2.222;2023-08-17T17:03:00;42.90;45.20
29345;DHT22;16339;48.748;2.222;2023-08-17T17:05:29;43.00;45.00
29345;DHT22;16339;48.748;2.222;2023-08-17T17:07:57;43.20;44.90
29345;DHT22;16339;48.748;2.222;2023-08-17T17:10:25;43.20;44.70
29345;DHT22;16339;48.748;2.222;2023-08-17T17:12:54;43.20;45.10
29345;DHT22;16339;48.748;2.222;2023-08-17T17:15:22;43.10;45.30
29345;DHT22;16339;48.748;2.222;2023-08-17T17:17:53;42.90;45.60
29345;DHT22;16339;48.748;2.222;2023-08-17T17:20:22;42.90;45.80
29345;DHT22;16339;48.748;2.222;2023-08-17T17:22:51;42.80;46.10
29345;DHT22;16339;48.748;2.222;2023-08-17T17:25:19;42.50;46.40
29345;DHT22;16339;48.748;2.222;2023-08-17T17:27:48;42.30;46.70
29345;DHT22;16339;48.748;2.222;2023-08-17T17:30:16;42.20;47.10
29345;DHT22;16339;48.748;2.222;2023-08-17T17:32:45;42.00;47.50
29345;DHT22;16339;48.748;2.222;2023-08-17T17:35:18;41.90;47.50
29345;DHT22;16339;48.748;2.222;2023-08-17T17:37:46;41.80;47.40
29345;DHT22;16339;48.748;2.222;2023-08-17T17:40:15;41.80;47.40
29345;DHT22;16339;48.748;2.222;2023-08-17T17:42:43;41.80;47.60
29345;DHT22;16339;48.748;2.222;2023-08-17T17:45:12;41.70;47.40
29345;DHT22;16339;48.748;2.222;2023-08-17T17:47:40;41.60;47.60
29345;DHT22;16339;48.748;2.222;2023-08-17T17:50:21;41.60;47.80
29345;DHT22;16339;48.748;2.222;2023-08-17T17:52:50;41.40;47.90
29345;DHT22;16339;48.748;2.222;2023-08-17T17:55:18;41.20;48.10
29345;DHT22;16339;48.748;2.222;2023-08-17T17:57:47;40.80;48.60
29345;DHT22;16339;48.748;2.222;2023-08-17T18:00:15;40.40;48.90
29345;DHT22;16339;48.748;2.222;2023-08-17T18:02:44;39.80;49.70
29345;DHT22;16339;48.748;2.222;2023-08-17T18:05:12;39.10;50.50
29345;DHT22;16339;48.748;2.222;2023-08-17T18:07:43;38.20;52.10
29345;DHT22;16339;48.748;2.222;2023-08-17T18:10:12;37.30;53.90
29345;DHT22;16339;48.748;2.222;2023-08-17T18:12:40;36.40;55.40
29345;DHT22;16339;48.748;2.222;2023-08-17T18:15:09;35.60;57.20
29345;DHT22;16339;48.748;2.222;2023-08-17T18:17:37;34.90;58.70
29345;DHT22;16339;48.748;2.222;2023-08-17T18:20:06;34.30;60.20
29345;DHT22;16339;48.748;2.222;2023-08-17T18:22:35;33.80;61.70
29345;DHT22;16339;48.748;2.222;2023-08-17T18:25:07;33.30;62.90
29345;DHT22;16339;48.748;2.222;2023-08-17T18:27:37;33.00;63.80
29345;DHT22;16339;48.748;2.222;2023-08-17T18:30:06;32.60;64.90
29345;DHT22;16339;48.748;2.222;2023-08-17T18:32:35;32.30;65.70
29345;DHT22;16339;48.748;2.222;2023-08-17T18:35:03;32.10;66.70
29345;DHT22;16339;48.748;2.222;2023-08-17T18:37:32;31.80;67.20
29345;DHT22;16339;48.748;2.222;2023-08-17T18:40:02;31.50;68.20
29345;DHT22;16339;48.748;2.222;2023-08-17T18:42:33;31.30;68.80
29345;DHT22;16339;48.748;2.222;2023-08-17T18:45:01;31.10;69.80
29345;DHT22;16339;48.748;2.222;2023-08-17T18:47:30;30.90;70.70
29345;DHT22;16339;48.748;2.222;2023-08-17T18:49:58;30.80;71.30
29345;DHT22;16339;48.748;2.222;2023-08-17T18:52:27;30.60;71.50
29345;DHT22;16339;48.748;2.222;2023-08-17T18:54:58;30.50;71.60
29345;DHT22;16339;48.748;2.222;2023-08-17T18:57:28;30.40;71.90
29345;DHT22;16339;48.748;2.222;2023-08-17T18:59:59;30.30;72.50
29345;DHT22;16339;48.748;2.222;2023-08-17T19:02:28;30.10;72.70
29345;DHT22;16339;48.748;2.222;2023-08-17T19:04:56;30.00;73.00
29345;DHT22;16339;48.748;2.222;2023-08-17T19:07:25;29.90;73.00
29345;DHT22;16339;48.748;2.222;2023-08-17T19:09:54;29.80;73.20
29345;DHT22;16339;48.748;2.222;2023-08-17T19:12:22;29.70;73.70
29345;DHT22;16339;48.748;2.222;2023-08-17T19:14:51;29.60;74.20
29345;DHT22;16339;48.748;2.222;2023-08-17T19:17:22;29.50;74.30
29345;DHT22;16339;48.748;2.222;2023-08-17T19:19:51;29.40;74.40
29345;DHT22;16339;48.748;2.222;2023-08-17T19:22:19;29.30;74.70
29345;DHT22;16339;48.748;2.222;2023-08-17T19:24:48;29.20;74.70
29345;DHT22;16339;48.748;2.222;2023-08-17T19:27:16;29.10;75.00
29345;DHT22;16339;48.748;2.222;2023-08-17T19:29:45;29.10;75.20
29345;DHT22;16339;48.748;2.222;2023-08-17T19:32:13;29.00;75.70
29345;DHT22;16339;48.748;2.222;2023-08-17T19:34:44;29.00;76.20
29345;DHT22;16339;48.748;2.222;2023-08-17T19:37:12;28.90;76.20
29345;DHT22;16339;48.748;2.222;2023-08-17T19:39:41;28.90;76.20
29345;DHT22;16339;48.748;2.222;2023-08-17T19:42:09;28.90;76.30
29345;DHT22;16339;48.748;2.222;2023-08-17T19:44:38;28.80;76.50
29345;DHT22;16339;48.748;2.222;2023-08-17T19:47:06;28.80;76.70
29345;DHT22;16339;48.748;2.222;2023-08-17T19:49:36;28.70;76.70
29345;DHT22;16339;48.748;2.222;2023-08-17T19:52:07;28.70;76.90
29345;DHT22;16339;48.748;2.222;2023-08-17T19:54:36;28.70;77.00
29345;DHT22;16339;48.748;2.222;2023-08-17T19:57:05;28.60;77.10
29345;DHT22;16339;48.748;2.222;2023-08-17T19:59:34;28.60;77.00
29345;DHT22;16339;48.748;2.222;2023-08-17T20:02:02;28.60;76.90
29345;DHT22;16339;48.748;2.222;2023-08-17T20:04:31;28.60;77.10
29345;DHT22;16339;48.748;2.222;2023-08-17T20:06:59;28.60;77.20
29345;DHT22;16339;48.748;2.222;2023-08-17T20:09:31;28.60;77.20
29345;DHT22;16339;48.748;2.222;2023-08-17T20:12:00;28.50;77.50
29345;DHT22;16339;48.748;2.222;2023-08-17T20:14:31;28.50;77.40
29345;DHT22;16339;48.748;2.222;2023-08-17T20:17:00;28.40;77.40
29345;DHT22;16339;48.748;2.222;2023-08-17T20:19:29;28.30;77.60
29345;DHT22;16339;48.748;2.222;2023-08-17T20:21:58;28.30;77.70
29345;DHT22;16339;48.748;2.222;2023-08-17T20:24:26;28.20;78.00
29345;DHT22;16339;48.748;2.222;2023-08-17T20:26:58;28.10;78.00
29345;DHT22;16339;48.748;2.222;2023-08-17T20:29:27;28.10;78.60
29345;DHT22;16339;48.748;2.222;2023-08-17T20:31:55;28.00;78.80
29345;DHT22;16339;48.748;2.222;2023-08-17T20:34:24;28.00;78.90
29345;DHT22;16339;48.748;2.222;2023-08-17T20:36:53;28.00;79.10
29345;DHT22;16339;48.748;2.222;2023-08-17T20:39:21;28.00;79.20
29345;DHT22;16339;48.748;2.222;2023-08-17T20:41:50;28.00;79.40
29345;DHT22;16339;48.748;2.222;2023-08-17T20:44:21;28.00;79.30
29345;DHT22;16339;48.748;2.222;2023-08-17T20:46:49;28.00;79.20
29345;DHT22;16339;48.748;2.222;2023-08-17T20:49:18;28.00;79.10
29345;DHT22;16339;48.748;2.222;2023-08-17T20:51:46;28.00;79.30
29345;DHT22;16339;48.748;2.222;2023-08-17T20:54:15;28.00;79.40
29345;DHT22;16339;48.748;2.222;2023-08-17T20:56:44;28.00;79.40
29345;DHT22;16339;48.748;2.222;2023-08-17T20:59:12;27.90;79.40
29345;DHT22;16339;48.748;2.222;2023-08-17T21:01:43;28.00;79.70
29345;DHT22;16339;48.748;2.222;2023-08-17T21:04:12;28.00;79.60
29345;DHT22;16339;48.748;2.222;2023-08-17T21:06:40;28.00;79.70
29345;DHT22;16339;48.748;2.222;2023-08-17T21:09:09;28.00;79.70
29345;DHT22;16339;48.748;2.222;2023-08-17T21:11:38;28.00;79.70
29345;DHT22;16339;48.748;2.222;2023-08-17T21:14:06;28.00;79.60
29345;DHT22;16339;48.748;2.222;2023-08-17T21:16:35;27.90;79.50
29345;DHT22;16339;48.748;2.222;2023-08-17T21:19:06;27.90;79.50
29345;DHT22;16339;48.748;2.222;2023-08-17T21:21:34;27.90;79.70
29345;DHT22;16339;48.748;2.222;2023-08-17T21:24:03;27.90;79.70
29345;DHT22;16339;48.748;2.222;2023-08-17T21:26:32;27.80;79.60
29345;DHT22;16339;48.748;2.222;2023-08-17T21:29:00;27.80;79.80
29345;DHT22;16339;48.748;2.222;2023-08-17T21:31:29;27.80;79.90
29345;DHT22;16339;48.748;2.222;2023-08-17T21:33:58;27.70;80.00
29345;DHT22;16339;48.748;2.222;2023-08-17T21:36:29;27.70;80.00
29345;DHT22;16339;48.748;2.222;2023-08-17T21:38:57;27.70;80.00
29345;DHT22;16339;48.748;2.222;2023-08-17T21:41:26;27.70;79.90
29345;DHT22;16339;48.748;2.222;2023-08-17T21:43:54;27.70;80.00
29345;DHT22;16339;48.748;2.222;2023-08-17T21:46:24;27.60;80.00
29345;DHT22;16339;48.748;2.222;2023-08-17T21:48:52;27.70;80.20
29345;DHT22;16339;48.748;2.222;2023-08-17T21:51:21;27.60;80.10
29345;DHT22;16339;48.748;2.222;2023-08-17T21:53:52;27.70;80.20
29345;DHT22;16339;48.748;2.222;2023-08-17T21:56:20;27.60;79.50
29345;DHT22;16339;48.748;2.222;2023-08-17T21:58:49;27.70;79.70
29345;DHT22;16339;48.748;2.222;2023-08-17T22:01:17;27.70;79.70
29345;DHT22;16339;48.748;2.222;2023-08-17T22:03:46;27.70;79.60
29345;DHT22;16339;48.748;2.222;2023-08-17T22:06:14;27.80;79.50
29345;DHT22;16339;48.748;2.222;2023-08-17T22:08:42;27.80;79.40
29345;DHT22;16339;48.748;2.222;2023-08-17T22:11:13;27.80;79.50
29345;DHT22;16339;48.748;2.222;2023-08-17T22:13:42;27.70;79.50
29345;DHT22;16339;48.748;2.222;2023-08-17T22:16:10;27.70;79.20
29345;DHT22;16339;48.748;2.222;2023-08-17T22:18:39;27.70;79.20
29345;DHT22;16339;48.748;2.222;2023-08-17T22:21:07;27.70;79.40
29345;DHT22;16339;48.748;2.222;2023-08-17T22:23:35;27.70;79.50
29345;DHT22;16339;48.748;2.222;2023-08-17T22:26:04;27.60;79.60
29345;DHT22;16339;48.748;2.222;2023-08-17T22:28:35;27.50;79.60
29345;DHT22;16339;48.748;2.222;2023-08-17T22:31:03;27.50;79.80
29345;DHT22;16339;48.748;2.222;2023-08-17T22:33:33;27.50;79.90
29345;DHT22;16339;48.748;2.222;2023-08-17T22:36:01;27.50;80.00
29345;DHT22;16339;48.748;2.222;2023-08-17T22:38:31;27.40;80.00
29345;DHT22;16339;48.748;2.222;2023-08-17T22:40:59;27.40;80.20
29345;DHT22;16339;48.748;2.222;2023-08-17T22:43:27;27.40;80.40
29345;DHT22;16339;48.748;2.222;2023-08-17T22:46:00;27.40;80.50
29345;DHT22;16339;48.748;2.222;2023-08-17T22:48:29;27.30;80.70
29345;DHT22;16339;48.748;2.222;2023-08-17T22:50:58;27.30;80.90
29345;DHT22;16339;48.748;2.222;2023-08-17T22:53:26;27.20;81.00
29345;DHT22;16339;48.748;2.222;2023-08-17T22:55:55;27.20;81.10
29345;DHT22;16339;48.748;2.222;2023-08-17T22:58:23;27.20;80.90
29345;DHT22;16339;48.748;2.222;2023-08-17T23:00:51;27.20;81.10
29345;DHT22;16339;48.748;2.222;2023-08-17T23:03:23;27.10;81.10
29345;DHT22;16339;48.748;2.222;2023-08-17T23:05:51;27.10;80.90
29345;DHT22;16339;48.748;2.222;2023-08-17T23:08:20;27.10;81.10
29345;DHT22;16339;48.748;2.222;2023-08-17T23:10:48;27.10;81.10
29345;DHT22;16339;48.748;2.222;2023-08-17T23:13:17;27.10;81.10
29345;DHT22;16339;48.748;2.222;2023-08-17T23:15:45;27.10;81.10
29345;DHT22;16339;48.748;2.222;2023-08-17T23:18:14;27.10;80.90
29345;DHT22;16339;48.748;2.222;2023-08-17T23:20:45;27.10;81.00
29345;DHT22;16339;48.748;2.222;2023-08-17T23:23:14;27.10;81.00
29345;DHT22;16339;48.748;2.222;2023-08-17T23:25:42;27.10;81.00
29345;DHT22;16339;48.748;2.222;2023-08-17T23:28:11;27.10;81.10
29345;DHT22;16339;48.748;2.222;2023-08-17T23:30:39;27.10;81.10
29345;DHT22;16339;48.748;2.222;2023-08-17T23:33:08;27.10;81.20
29345;DHT22;16339;48.748;2.222;2023-08-17T23:35:37;27.10;81.50
29345;DHT22;16339;48.748;2.222;2023-08-17T23:38:08;27.10;81.40
29345;DHT22;16339;48.748;2.222;2023-08-17T23:40:38;27.00;81.30
29345;DHT22;16339;48.748;2.222;2023-08-17T23:43:06;27.10;81.30
29345;DHT22;16339;48.748;2.222;2023-08-17T23:45:35;27.00;81.20
29345;DHT22;16339;48.748;2.222;2023-08-17T23:48:03;27.00;81.20
29345;DHT22;16339;48.748;2.222;2023-08-17T23:50:32;27.00;81.20
29345;DHT22;16339;48.748;2.222;2023-08-17T23:53:01;27.00;81.40
29345;DHT22;16339;48.748;2.222;2023-08-17T23:55:32;27.00;81.50
29345;DHT22;16339;48.748;2.222;2023-08-17T23:58:00;26.90;81.70
